Terminal Aerodrome Forecast
Issued by NWS Riverton, WY

Home | Current Version | Previous Version | Text Only | Print | Product List | Glossary On
Versions: 1 2 3 4 5 6 7 8 9 10 11 12 13 14
246
FTUS45 KRIW 230525
TAFRIW
TAF
KRIW 230525Z 2306/2406 02008KT P6SM SCT120
     FM231200 02015KT P6SM VCSH SCT040 BKN090
     FM231800 02020G30KT P6SM VCSH SCT030 BKN040=

USA.gov is the U.S. government's official web portal to all federal, state and local government web resources and services.